createdAt,value
2018-08-30T00:01:58.742Z,20.70
2018-08-30T00:04:27.100Z,20.60
2018-08-30T00:06:55.453Z,20.40
2018-08-30T00:09:23.757Z,20.30
2018-08-30T00:11:52.170Z,20.20
2018-08-30T00:14:20.566Z,20.30
2018-08-30T00:16:48.897Z,20.30
2018-08-30T00:19:17.241Z,20.30
2018-08-30T00:21:45.633Z,20.30
2018-08-30T00:24:14.074Z,20.30
2018-08-30T00:26:42.457Z,20.30
2018-08-30T00:29:10.814Z,20.20
2018-08-30T00:31:39.214Z,20.00
2018-08-30T00:34:07.520Z,20.00
2018-08-30T00:36:35.863Z,20.00
2018-08-30T00:39:05.648Z,20.00
2018-08-30T00:41:34.037Z,20.00
2018-08-30T00:44:02.426Z,20.00
2018-08-30T00:46:30.729Z,20.10
2018-08-30T00:48:59.097Z,20.10
2018-08-30T00:51:27.388Z,20.10
2018-08-30T00:53:55.739Z,20.00
2018-08-30T00:56:25.156Z,20.10
2018-08-30T00:58:53.539Z,20.10
2018-08-30T01:01:21.918Z,20.10
2018-08-30T01:03:50.254Z,20.20
2018-08-30T01:06:18.541Z,20.10
2018-08-30T01:08:46.941Z,20.00
2018-08-30T01:11:15.946Z,20.20
2018-08-30T01:13:44.258Z,20.20
2018-08-30T01:16:12.725Z,20.20
2018-08-30T01:18:41.065Z,20.20
2018-08-30T01:21:09.481Z,20.10
2018-08-30T01:23:37.807Z,20.10
2018-08-30T01:26:06.266Z,20.20
2018-08-30T01:28:34.703Z,20.30
2018-08-30T01:31:03.142Z,20.10
2018-08-30T01:33:31.673Z,20.10
2018-08-30T01:36:00.003Z,20.20
2018-08-30T01:38:28.299Z,19.80
2018-08-30T01:40:56.781Z,19.80
2018-08-30T01:43:25.201Z,19.80
2018-08-30T01:45:53.622Z,19.90
2018-08-30T01:48:21.922Z,19.80
2018-08-30T01:50:50.310Z,19.70
2018-08-30T01:53:18.661Z,19.70
2018-08-30T01:55:47.049Z,19.80
2018-08-30T01:58:15.357Z,19.70
2018-08-30T02:00:43.746Z,19.80
2018-08-30T02:03:12.126Z,19.70
2018-08-30T02:05:40.438Z,19.60
2018-08-30T02:08:08.760Z,19.60
2018-08-30T02:10:37.141Z,19.60
2018-08-30T02:13:05.486Z,19.60
2018-08-30T02:15:33.877Z,19.30
2018-08-30T02:18:02.163Z,19.30
2018-08-30T02:20:30.513Z,19.40
2018-08-30T02:22:58.789Z,19.10
2018-08-30T02:25:27.185Z,18.80
2018-08-30T02:27:55.471Z,18.90
2018-08-30T02:30:23.840Z,19.00
2018-08-30T02:32:52.159Z,18.70
2018-08-30T02:35:20.513Z,18.70
2018-08-30T02:37:48.841Z,18.70
2018-08-30T02:40:17.163Z,18.70
2018-08-30T02:42:45.451Z,18.90
2018-08-30T02:45:13.806Z,18.70
2018-08-30T02:47:42.095Z,18.60
2018-08-30T02:50:10.457Z,18.70
2018-08-30T02:52:38.736Z,18.50
2018-08-30T02:55:07.091Z,18.40
2018-08-30T02:57:35.390Z,18.50
2018-08-30T03:00:03.865Z,18.60
2018-08-30T03:02:32.205Z,18.70
2018-08-30T03:05:00.525Z,18.80
2018-08-30T03:07:28.937Z,18.70
2018-08-30T03:09:57.244Z,18.70
2018-08-30T03:12:25.615Z,18.80
2018-08-30T03:15:06.447Z,18.70
2018-08-30T03:17:34.852Z,18.30
2018-08-30T03:20:04.585Z,18.40
2018-08-30T03:22:33.198Z,18.50
2018-08-30T03:25:01.742Z,18.60
2018-08-30T03:27:30.204Z,18.60
2018-08-30T03:29:58.573Z,18.80
2018-08-30T03:32:26.977Z,18.90
2018-08-30T03:34:55.766Z,19.00
2018-08-30T03:37:24.134Z,18.80
2018-08-30T03:39:52.452Z,18.70
2018-08-30T03:42:20.750Z,18.80
2018-08-30T03:44:49.152Z,18.90
2018-08-30T03:47:17.527Z,18.90
2018-08-30T03:49:45.901Z,19.00
2018-08-30T03:52:14.198Z,19.10
2018-08-30T03:54:42.555Z,19.00
2018-08-30T03:57:10.880Z,19.00
2018-08-30T03:59:39.196Z,19.00
2018-08-30T04:02:07.603Z,18.80
2018-08-30T04:04:35.940Z,18.70
2018-08-30T04:07:04.628Z,18.60
2018-08-30T04:09:32.956Z,18.30
2018-08-30T04:12:01.329Z,18.30
2018-08-30T04:14:30.245Z,18.30
2018-08-30T04:16:58.590Z,18.40
2018-08-30T04:19:26.963Z,18.50
2018-08-30T04:21:55.298Z,18.50
2018-08-30T04:24:23.627Z,18.50
2018-08-30T04:26:52.006Z,18.40
2018-08-30T04:29:20.303Z,18.50
2018-08-30T04:31:48.634Z,18.40
2018-08-30T04:34:17.004Z,18.20
2018-08-30T04:36:45.465Z,18.20
2018-08-30T04:39:13.765Z,18.20
2018-08-30T04:41:42.131Z,18.30
2018-08-30T04:44:10.500Z,18.30
2018-08-30T04:46:38.880Z,18.30
2018-08-30T04:49:07.163Z,18.30
2018-08-30T04:51:35.592Z,18.40
2018-08-30T04:54:04.126Z,18.50
2018-08-30T04:56:32.535Z,18.60
2018-08-30T04:59:00.856Z,18.30
2018-08-30T05:01:29.306Z,18.40
2018-08-30T05:03:58.637Z,18.50
2018-08-30T05:06:27.181Z,18.60
2018-08-30T05:08:55.569Z,18.60
2018-08-30T05:11:23.975Z,18.60
2018-08-30T05:13:52.340Z,18.60
2018-08-30T05:16:20.719Z,18.50
2018-08-30T05:18:49.081Z,18.60
2018-08-30T05:21:17.372Z,18.60
2018-08-30T05:23:45.706Z,18.70
2018-08-30T05:26:14.004Z,18.70
2018-08-30T05:28:42.453Z,18.60
2018-08-30T05:31:10.778Z,18.60
2018-08-30T05:33:39.205Z,18.50
2018-08-30T05:36:07.554Z,18.50
2018-08-30T05:38:35.979Z,18.40
2018-08-30T05:41:04.404Z,18.50
2018-08-30T05:43:32.810Z,18.50
2018-08-30T05:46:01.162Z,18.50
2018-08-30T05:48:29.518Z,18.50
2018-08-30T05:50:58.620Z,18.50
2018-08-30T05:53:27.034Z,18.60
2018-08-30T05:55:55.395Z,18.40
2018-08-30T05:58:23.983Z,18.40
2018-08-30T06:00:52.346Z,18.10
2018-08-30T06:03:20.657Z,18.00
2018-08-30T06:05:49.033Z,18.20
2018-08-30T06:08:17.410Z,18.30
2018-08-30T06:10:45.828Z,18.30
2018-08-30T06:13:14.937Z,18.20
2018-08-30T06:15:43.258Z,18.20
2018-08-30T06:18:11.628Z,18.10
2018-08-30T06:20:39.983Z,18.10
2018-08-30T06:23:08.264Z,18.10
2018-08-30T06:25:36.612Z,18.00
2018-08-30T06:28:05.097Z,18.10
2018-08-30T06:30:33.433Z,18.20
2018-08-30T06:33:01.788Z,18.30
2018-08-30T06:35:30.124Z,18.30
2018-08-30T06:37:58.570Z,18.30
2018-08-30T06:40:27.009Z,18.20
2018-08-30T06:42:55.337Z,17.90
2018-08-30T06:45:23.843Z,18.00
2018-08-30T06:47:52.177Z,18.10
2018-08-30T06:50:20.741Z,18.20
2018-08-30T06:52:49.149Z,18.00
2018-08-30T06:55:17.522Z,18.10
2018-08-30T06:57:45.890Z,18.10
2018-08-30T07:00:14.329Z,18.10
2018-08-30T07:02:42.682Z,18.20
2018-08-30T07:05:11.123Z,18.20
2018-08-30T07:07:39.579Z,18.10
2018-08-30T07:10:08.005Z,17.80
2018-08-30T07:12:36.445Z,17.50
2018-08-30T07:15:05.264Z,17.60
2018-08-30T07:17:33.738Z,17.70
2018-08-30T07:20:02.154Z,17.90
2018-08-30T07:22:30.576Z,17.90
2018-08-30T07:24:58.977Z,18.00
2018-08-30T07:27:27.360Z,18.10
2018-08-30T07:29:55.731Z,18.20
2018-08-30T07:32:24.232Z,18.50
2018-08-30T07:34:52.655Z,18.60
2018-08-30T07:37:20.982Z,18.70
2018-08-30T07:39:49.353Z,18.40
2018-08-30T07:42:17.753Z,18.10
2018-08-30T07:44:46.107Z,18.10
2018-08-30T07:47:14.540Z,18.20
2018-08-30T07:49:42.890Z,18.10
2018-08-30T07:52:11.278Z,18.20
2018-08-30T07:54:39.809Z,18.30
2018-08-30T07:57:08.084Z,18.30
2018-08-30T07:59:36.516Z,18.20
2018-08-30T08:02:05.054Z,18.20
2018-08-30T08:04:33.458Z,18.20
2018-08-30T08:07:01.950Z,18.20
2018-08-30T08:09:30.302Z,18.30
2018-08-30T08:11:58.702Z,18.50
2018-08-30T08:14:27.050Z,18.40
2018-08-30T08:16:55.384Z,18.50
2018-08-30T08:19:23.753Z,18.60
2018-08-30T08:21:52.126Z,18.60
2018-08-30T08:24:20.521Z,18.60
2018-08-30T08:26:48.926Z,18.50
2018-08-30T08:29:17.398Z,18.70
2018-08-30T08:31:45.778Z,18.40
2018-08-30T08:34:14.120Z,18.40
2018-08-30T08:36:42.486Z,18.30
2018-08-30T08:39:10.855Z,18.20
2018-08-30T08:44:04.206Z,18.10
2018-08-30T08:46:33.678Z,18.10
2018-08-30T08:49:02.119Z,18.10
2018-08-30T08:51:30.504Z,18.30
2018-08-30T08:53:59.039Z,18.40
2018-08-30T08:56:27.662Z,18.50
2018-08-30T08:58:56.116Z,18.60
2018-08-30T09:01:24.505Z,18.70
2018-08-30T09:03:52.834Z,18.60
2018-08-30T09:06:21.270Z,18.30
2018-08-30T09:08:49.697Z,18.50
2018-08-30T09:11:18.054Z,18.70
2018-08-30T09:13:46.433Z,18.90
2018-08-30T09:16:14.798Z,18.90
2018-08-30T09:18:43.163Z,18.70
2018-08-30T09:21:11.526Z,18.40
2018-08-30T09:23:39.918Z,18.50
2018-08-30T09:26:08.323Z,18.50
2018-08-30T09:28:36.728Z,18.70
2018-08-30T09:31:05.375Z,18.80
2018-08-30T09:33:33.756Z,18.80
2018-08-30T09:36:02.184Z,18.90
2018-08-30T09:38:30.639Z,19.20
2018-08-30T09:40:59.141Z,19.10
2018-08-30T09:43:27.615Z,19.20
2018-08-30T09:45:56.027Z,19.30
2018-08-30T09:48:24.445Z,19.40
2018-08-30T09:50:52.927Z,19.50
2018-08-30T09:53:21.314Z,19.70
2018-08-30T09:55:50.798Z,19.80
2018-08-30T09:58:19.066Z,19.50
2018-08-30T10:00:52.978Z,19.40
2018-08-30T10:03:21.376Z,19.60
2018-08-30T10:05:49.821Z,19.60
2018-08-30T10:08:18.134Z,19.50
2018-08-30T10:10:53.172Z,19.40
2018-08-30T10:13:21.553Z,19.30
2018-08-30T10:15:49.889Z,19.50
2018-08-30T10:18:18.496Z,19.70
2018-08-30T10:20:46.945Z,19.70
2018-08-30T10:23:15.325Z,20.00
2018-08-30T10:25:43.730Z,20.10
2018-08-30T10:28:12.138Z,20.20
2018-08-30T10:30:40.550Z,20.20
2018-08-30T10:33:08.954Z,20.10
2018-08-30T10:35:37.296Z,19.90
2018-08-30T10:38:05.701Z,20.00
2018-08-30T10:40:34.033Z,19.90
2018-08-30T10:43:02.529Z,19.90
2018-08-30T10:45:30.789Z,19.90
2018-08-30T10:47:59.182Z,19.90
2018-08-30T10:50:27.613Z,20.00
2018-08-30T10:52:55.948Z,19.90
2018-08-30T10:55:24.342Z,19.90
2018-08-30T10:57:53.032Z,19.80
2018-08-30T11:00:21.589Z,19.90
2018-08-30T11:02:50.049Z,19.80
2018-08-30T11:05:18.451Z,19.90
2018-08-30T11:07:46.881Z,19.80
2018-08-30T11:10:15.345Z,19.70
2018-08-30T11:12:43.740Z,20.00
2018-08-30T11:15:12.174Z,20.10
2018-08-30T11:17:40.512Z,20.10
2018-08-30T11:20:08.919Z,20.10
2018-08-30T11:22:37.264Z,20.20
2018-08-30T11:25:05.598Z,20.30
2018-08-30T11:27:33.983Z,20.00
2018-08-30T11:30:02.395Z,20.10
2018-08-30T11:32:30.756Z,20.20
2018-08-30T11:34:59.179Z,20.20
2018-08-30T11:37:27.549Z,20.20
2018-08-30T11:39:55.914Z,20.20
2018-08-30T11:42:24.325Z,20.30
2018-08-30T11:44:52.695Z,20.30
2018-08-30T11:47:21.025Z,20.40
2018-08-30T11:49:49.376Z,20.50
2018-08-30T11:52:17.857Z,20.60
2018-08-30T11:54:46.231Z,20.70
2018-08-30T11:57:14.660Z,20.90
2018-08-30T11:59:43.382Z,20.80
2018-08-30T12:02:12.127Z,20.80
2018-08-30T12:04:40.764Z,20.70
2018-08-30T12:07:09.228Z,20.80
2018-08-30T12:09:37.653Z,20.80
2018-08-30T12:12:06.681Z,20.80
2018-08-30T12:14:35.057Z,20.70
2018-08-30T12:17:03.600Z,20.70
2018-08-30T12:19:32.065Z,20.90
2018-08-30T12:22:00.463Z,20.90
2018-08-30T12:24:28.769Z,20.90
2018-08-30T12:26:57.250Z,20.90
2018-08-30T12:29:25.898Z,21.00
2018-08-30T12:31:54.294Z,21.10
2018-08-30T12:34:22.918Z,21.00
2018-08-30T12:36:51.364Z,21.10
2018-08-30T12:39:19.804Z,20.80
2018-08-30T12:41:48.292Z,20.60
2018-08-30T12:44:16.710Z,20.60
2018-08-30T12:46:45.134Z,20.70
2018-08-30T12:49:13.586Z,20.80
2018-08-30T12:51:42.500Z,20.70
2018-08-30T12:54:10.911Z,20.90
2018-08-30T12:56:39.241Z,21.00
2018-08-30T12:59:13.202Z,21.00
2018-08-30T13:01:41.674Z,21.10
2018-08-30T13:04:10.109Z,21.30
2018-08-30T13:06:43.875Z,21.40
2018-08-30T13:09:13.941Z,21.10
2018-08-30T13:11:42.348Z,21.20
2018-08-30T13:14:11.135Z,21.10
2018-08-30T13:16:39.437Z,20.90
2018-08-30T13:19:07.919Z,21.20
2018-08-30T13:21:36.385Z,21.20
2018-08-30T13:24:04.594Z,21.30
2018-08-30T13:26:32.847Z,21.40
2018-08-30T13:29:01.316Z,21.40
2018-08-30T13:31:29.786Z,21.50
2018-08-30T13:33:58.358Z,21.60
2018-08-30T13:36:26.713Z,21.50
2018-08-30T13:38:55.266Z,21.30
2018-08-30T13:41:23.621Z,21.30
2018-08-30T13:43:52.147Z,21.40
2018-08-30T13:46:20.182Z,21.30
2018-08-30T13:48:48.512Z,21.50
2018-08-30T13:51:17.025Z,21.50
2018-08-30T13:53:45.569Z,21.50
2018-08-30T13:56:14.004Z,21.50
2018-08-30T13:58:42.535Z,21.50
2018-08-30T14:01:17.759Z,21.60
2018-08-30T14:03:45.805Z,21.90
2018-08-30T14:06:14.326Z,22.00
2018-08-30T14:08:43.014Z,22.10
2018-08-30T14:11:11.384Z,22.30
2018-08-30T14:13:39.932Z,22.10
2018-08-30T14:16:08.113Z,22.10
2018-08-30T14:18:36.604Z,22.00
2018-08-30T14:21:05.129Z,22.30
2018-08-30T14:23:33.648Z,22.40
2018-08-30T14:26:02.378Z,22.30
2018-08-30T14:28:30.638Z,22.50
2018-08-30T14:30:59.018Z,22.50
2018-08-30T14:33:27.417Z,22.60
2018-08-30T14:35:55.828Z,22.60
2018-08-30T14:38:24.257Z,22.60
2018-08-30T14:40:52.901Z,22.60
2018-08-30T14:43:20.935Z,22.60
2018-08-30T14:45:49.266Z,22.50
2018-08-30T14:48:17.602Z,22.60
2018-08-30T14:50:46.041Z,22.50
2018-08-30T14:53:14.543Z,22.40
2018-08-30T14:55:42.890Z,22.50
2018-08-30T14:58:11.246Z,22.60
2018-08-30T15:00:39.709Z,22.40
2018-08-30T15:03:07.982Z,22.30
2018-08-30T15:05:36.445Z,22.20
2018-08-30T15:08:04.835Z,22.10
2018-08-30T15:10:33.165Z,22.20
2018-08-30T15:13:01.525Z,22.20
2018-08-30T15:15:29.996Z,22.20
2018-08-30T15:17:58.309Z,22.30
2018-08-30T15:20:26.622Z,22.40
2018-08-30T15:22:54.995Z,22.40
2018-08-30T15:25:23.317Z,22.60
2018-08-30T15:27:51.764Z,22.40
2018-08-30T15:30:20.201Z,22.60
2018-08-30T15:32:48.655Z,22.60
2018-08-30T15:35:17.015Z,22.70
2018-08-30T15:37:45.430Z,22.60
2018-08-30T15:40:13.885Z,22.60
2018-08-30T15:42:42.265Z,22.70
2018-08-30T15:45:10.667Z,22.70
2018-08-30T15:47:39.233Z,22.70
2018-08-30T15:50:07.997Z,22.50
2018-08-30T15:52:36.400Z,22.40
2018-08-30T15:55:05.192Z,22.40
2018-08-30T15:57:33.600Z,22.30
2018-08-30T16:00:02.066Z,22.30
2018-08-30T16:02:30.577Z,22.10
2018-08-30T16:04:59.155Z,21.80
2018-08-30T16:07:29.933Z,21.50
2018-08-30T16:09:58.771Z,21.40
2018-08-30T16:12:27.315Z,21.50
2018-08-30T16:14:55.827Z,21.20
2018-08-30T16:17:24.446Z,20.80
2018-08-30T16:19:52.679Z,20.70
2018-08-30T16:22:45.063Z,20.70
2018-08-30T16:25:13.459Z,20.70
2018-08-30T16:27:41.793Z,20.80
2018-08-30T16:30:10.256Z,20.70
2018-08-30T16:32:38.624Z,20.70
2018-08-30T16:35:07.246Z,20.50
2018-08-30T16:37:35.655Z,20.30
2018-08-30T16:40:04.287Z,20.10
2018-08-30T16:42:32.584Z,20.20
2018-08-30T16:45:00.987Z,20.00
2018-08-30T16:47:29.355Z,20.00
2018-08-30T16:49:57.690Z,20.00
2018-08-30T16:52:26.176Z,19.80
2018-08-30T16:54:54.595Z,20.00
2018-08-30T16:57:22.972Z,20.20
2018-08-30T16:59:51.414Z,20.10
2018-08-30T17:02:19.856Z,20.20
2018-08-30T17:04:48.228Z,20.10
2018-08-30T17:07:16.690Z,20.20
2018-08-30T17:09:45.535Z,20.10
2018-08-30T17:12:14.053Z,20.10
2018-08-30T17:14:42.553Z,20.20
2018-08-30T17:17:11.039Z,19.90
2018-08-30T17:19:39.300Z,19.90
2018-08-30T17:22:07.972Z,19.90
2018-08-30T17:24:36.326Z,19.90
2018-08-30T17:27:04.709Z,20.00
2018-08-30T17:29:33.385Z,20.00
2018-08-30T17:32:01.788Z,20.00
2018-08-30T17:34:30.280Z,19.90
2018-08-30T17:36:58.944Z,19.80
2018-08-30T17:39:27.348Z,19.90
2018-08-30T17:41:55.840Z,19.80
2018-08-30T17:44:24.202Z,19.80
2018-08-30T17:46:52.627Z,19.60
2018-08-30T17:49:21.128Z,19.50
2018-08-30T17:51:49.616Z,19.40
2018-08-30T17:54:17.968Z,19.50
2018-08-30T17:56:46.466Z,19.40
2018-08-30T17:59:14.975Z,19.30
2018-08-30T18:01:43.446Z,19.00
2018-08-30T18:04:11.882Z,19.00
2018-08-30T18:06:40.265Z,19.00
2018-08-30T18:09:09.665Z,19.00
2018-08-30T18:11:38.162Z,19.00
2018-08-30T18:14:06.632Z,19.00
2018-08-30T18:16:35.063Z,19.00
2018-08-30T18:19:03.467Z,19.10
2018-08-30T18:21:31.840Z,19.20
2018-08-30T18:24:00.314Z,19.20
2018-08-30T18:26:28.758Z,19.10
2018-08-30T18:28:57.228Z,19.20
2018-08-30T18:31:25.723Z,19.00
2018-08-30T18:33:54.110Z,18.80
2018-08-30T18:36:22.534Z,18.80
2018-08-30T18:38:51.049Z,18.90
2018-08-30T18:41:19.580Z,18.80
2018-08-30T18:43:47.996Z,18.70
2018-08-30T18:46:16.573Z,18.70
2018-08-30T18:48:45.024Z,18.70
2018-08-30T18:51:13.503Z,18.80
2018-08-30T18:53:42.393Z,18.80
2018-08-30T18:56:10.769Z,19.00
2018-08-30T18:58:39.287Z,19.10
2018-08-30T19:01:07.868Z,19.00
2018-08-30T19:03:36.294Z,19.00
2018-08-30T19:06:04.964Z,19.00
2018-08-30T19:08:33.972Z,19.00
2018-08-30T19:11:02.626Z,18.90
2018-08-30T19:13:31.375Z,18.80
2018-08-30T19:16:05.427Z,18.80
2018-08-30T19:18:39.443Z,18.70
2018-08-30T19:21:07.825Z,18.70
2018-08-30T19:23:36.567Z,18.70
2018-08-30T19:26:05.034Z,18.70
2018-08-30T19:28:33.780Z,18.70
2018-08-30T19:31:02.437Z,18.60
2018-08-30T19:33:31.177Z,18.50
2018-08-30T19:36:05.162Z,18.50
2018-08-30T19:38:33.638Z,18.50
2018-08-30T19:41:07.687Z,18.40
2018-08-30T19:43:36.878Z,18.40
2018-08-30T19:46:05.353Z,18.40
2018-08-30T19:48:33.818Z,18.40
2018-08-30T19:51:02.326Z,18.40
2018-08-30T19:53:30.825Z,18.40
2018-08-30T19:55:59.270Z,18.50
2018-08-30T19:58:27.735Z,18.60
2018-08-30T20:00:56.149Z,18.70
2018-08-30T20:03:24.552Z,18.50
2018-08-30T20:05:53.064Z,18.30
2018-08-30T20:08:21.629Z,18.30
2018-08-30T20:10:50.078Z,18.30
2018-08-30T20:13:19.082Z,18.30
2018-08-30T20:15:47.657Z,18.30
2018-08-30T20:18:16.065Z,18.30
2018-08-30T20:20:44.514Z,18.20
2018-08-30T20:23:12.999Z,18.30
2018-08-30T20:25:41.407Z,18.30
2018-08-30T20:28:09.804Z,18.10
2018-08-30T20:30:38.285Z,18.00
2018-08-30T20:33:06.786Z,18.00
2018-08-30T20:35:35.297Z,18.10
2018-08-30T20:38:04.119Z,18.10
2018-08-30T20:40:32.639Z,18.10
2018-08-30T20:43:01.135Z,18.10
2018-08-30T20:45:29.547Z,18.00
2018-08-30T20:47:58.045Z,18.00
2018-08-30T20:50:26.533Z,17.80
2018-08-30T20:52:54.978Z,17.80
2018-08-30T20:55:23.424Z,17.80
2018-08-30T20:57:51.959Z,17.80
2018-08-30T21:00:20.442Z,17.90
2018-08-30T21:02:48.886Z,18.10
2018-08-30T21:05:17.690Z,18.20
2018-08-30T21:07:46.188Z,18.30
2018-08-30T21:10:14.715Z,18.20
2018-08-30T21:12:43.134Z,18.20
2018-08-30T21:15:11.539Z,18.10
2018-08-30T21:17:40.091Z,18.20
2018-08-30T21:20:08.606Z,18.30
2018-08-30T21:22:37.046Z,18.40
2018-08-30T21:25:05.628Z,18.40
2018-08-30T21:27:34.101Z,18.40
2018-08-30T21:30:02.592Z,18.40
2018-08-30T21:32:31.005Z,18.10
2018-08-30T21:34:59.419Z,18.10
2018-08-30T21:37:27.771Z,18.00
2018-08-30T21:39:56.207Z,18.00
2018-08-30T21:42:25.459Z,18.00
2018-08-30T21:44:54.017Z,18.00
2018-08-30T21:47:22.462Z,18.00
2018-08-30T21:49:50.811Z,18.10
2018-08-30T21:52:19.206Z,18.10
2018-08-30T21:54:48.053Z,17.80
2018-08-30T21:57:16.397Z,17.70
2018-08-30T21:59:44.739Z,17.70
2018-08-30T22:02:13.167Z,17.80
2018-08-30T22:04:41.605Z,18.00
2018-08-30T22:07:10.035Z,18.10
2018-08-30T22:09:38.380Z,18.30
2018-08-30T22:12:06.787Z,18.30
2018-08-30T22:14:35.206Z,18.30
2018-08-30T22:17:03.643Z,18.10
2018-08-30T22:19:32.001Z,18.00
2018-08-30T22:22:00.422Z,18.00
2018-08-30T22:24:28.829Z,18.00
2018-08-30T22:26:57.226Z,18.00
2018-08-30T22:29:25.568Z,18.00
2018-08-30T22:31:53.986Z,18.10
2018-08-30T22:34:22.401Z,18.20
2018-08-30T22:36:50.777Z,18.20
2018-08-30T22:39:19.277Z,18.30
2018-08-30T22:41:47.695Z,18.30
2018-08-30T22:44:16.437Z,18.40
2018-08-30T22:46:45.276Z,18.30
2018-08-30T22:49:13.694Z,18.10
2018-08-30T22:51:42.066Z,18.10
2018-08-30T22:54:10.466Z,18.10
2018-08-30T22:56:39.148Z,18.10
2018-08-30T22:59:07.703Z,18.20
2018-08-30T23:01:36.196Z,18.20
2018-08-30T23:04:04.618Z,18.10
2018-08-30T23:06:33.058Z,18.10
2018-08-30T23:09:01.456Z,18.00
2018-08-30T23:11:29.783Z,18.00
2018-08-30T23:13:58.233Z,18.10
2018-08-30T23:16:26.592Z,18.10
2018-08-30T23:18:55.009Z,18.00
2018-08-30T23:21:23.369Z,18.10
2018-08-30T23:23:51.748Z,18.10
2018-08-30T23:26:20.081Z,18.20
2018-08-30T23:28:48.424Z,18.10
2018-08-30T23:31:16.788Z,18.10
2018-08-30T23:33:45.250Z,18.20
2018-08-30T23:36:13.678Z,18.30
2018-08-30T23:38:42.107Z,18.30
2018-08-30T23:41:10.551Z,18.30
2018-08-30T23:43:38.842Z,18.20
2018-08-30T23:46:07.213Z,18.10
2018-08-30T23:48:36.505Z,18.10
2018-08-30T23:51:04.965Z,18.10
2018-08-30T23:53:33.405Z,18.10
2018-08-30T23:56:01.780Z,18.10
2018-08-30T23:58:47.184Z,18.00
